createdAt,value
2022-09-03T00:02:13.434Z,0.83
2022-09-03T00:04:51.227Z,0.80
2022-09-03T00:07:27.340Z,0.73
2022-09-03T00:10:03.196Z,1.00
2022-09-03T00:12:36.952Z,1.47
2022-09-03T00:15:08.364Z,1.10
2022-09-03T00:17:39.853Z,0.90
2022-09-03T00:20:13.888Z,1.10
2022-09-03T00:22:44.718Z,0.70
2022-09-03T00:25:18.402Z,1.03
2022-09-03T00:27:51.433Z,1.40
2022-09-03T00:30:20.184Z,0.87
2022-09-03T00:32:55.638Z,0.70
2022-09-03T00:35:29.692Z,0.80
2022-09-03T00:37:58.472Z,1.10
2022-09-03T00:41:06.828Z,0.97
2022-09-03T00:43:52.561Z,0.90
2022-09-03T00:46:25.615Z,0.90
2022-09-03T00:49:11.618Z,0.80
2022-09-03T00:51:48.540Z,0.93
2022-09-03T00:54:22.442Z,1.77
2022-09-03T00:57:01.475Z,0.90
2022-09-03T00:59:41.519Z,0.90
2022-09-03T01:02:20.031Z,0.70
2022-09-03T01:05:00.246Z,0.93
2022-09-03T01:07:41.968Z,0.90
2022-09-03T01:10:27.344Z,0.63
2022-09-03T01:13:01.070Z,1.13
2022-09-03T01:15:35.890Z,0.90
2022-09-03T01:18:16.237Z,1.50
2022-09-03T01:20:53.875Z,0.80
2022-09-03T01:23:49.545Z,1.03
2022-09-03T01:26:30.559Z,1.20
2022-09-03T01:29:08.822Z,0.80
2022-09-03T01:31:45.056Z,0.90
2022-09-03T01:34:22.201Z,0.67
2022-09-03T01:36:56.908Z,0.73
2022-09-03T01:39:33.892Z,0.80
2022-09-03T01:42:15.920Z,0.93
2022-09-03T01:45:06.416Z,0.73
2022-09-03T01:47:51.392Z,0.63
2022-09-03T01:50:34.717Z,1.17
2022-09-03T01:53:11.743Z,1.10
2022-09-03T01:55:56.639Z,1.10
2022-09-03T01:58:31.347Z,1.40
2022-09-03T02:01:06.347Z,0.97
2022-09-03T02:03:40.767Z,0.90
2022-09-03T02:06:09.282Z,0.90
2022-09-03T02:08:37.254Z,1.00
2022-09-03T02:11:07.039Z,0.87
2022-09-03T02:13:40.404Z,1.00
2022-09-03T02:16:14.036Z,1.10
2022-09-03T02:18:46.072Z,0.93
2022-09-03T02:21:17.747Z,0.80
2022-09-03T02:23:45.678Z,1.17
2022-09-03T02:26:18.066Z,0.93
2022-09-03T02:28:46.459Z,1.00
2022-09-03T02:31:15.937Z,0.90
2022-09-03T02:33:47.543Z,0.97
2022-09-03T02:36:18.898Z,1.23
2022-09-03T02:38:47.175Z,1.30
2022-09-03T02:41:15.466Z,1.30
2022-09-03T02:43:47.139Z,1.30
2022-09-03T02:46:22.310Z,1.10
2022-09-03T02:48:50.501Z,0.80
2022-09-03T02:51:18.495Z,0.90
2022-09-03T02:53:46.719Z,0.70
2022-09-03T02:56:14.795Z,0.83
2022-09-03T02:58:42.787Z,0.80
2022-09-03T03:01:11.733Z,2.03
2022-09-03T03:03:47.406Z,0.80
2022-09-03T03:06:15.365Z,0.80
2022-09-03T03:08:44.226Z,0.90
2022-09-03T03:11:12.133Z,0.97
2022-09-03T03:13:40.057Z,0.90
2022-09-03T03:16:07.966Z,0.87
2022-09-03T03:18:36.255Z,1.03
2022-09-03T03:21:10.773Z,1.07
2022-09-03T03:23:40.154Z,1.10
2022-09-03T03:26:10.606Z,0.97
2022-09-03T03:28:38.639Z,0.90
2022-09-03T03:31:07.988Z,1.00
2022-09-03T03:33:36.099Z,1.07
2022-09-03T03:36:10.649Z,1.07
2022-09-03T03:38:39.493Z,1.00
2022-09-03T03:41:10.746Z,0.97
2022-09-03T03:43:39.047Z,0.70
2022-09-03T03:46:07.584Z,0.80
2022-09-03T03:48:36.301Z,1.00
2022-09-03T03:51:06.717Z,0.90
2022-09-03T03:53:37.279Z,1.00
2022-09-03T03:56:07.467Z,0.90
2022-09-03T03:58:35.867Z,2.07
2022-09-03T04:01:07.937Z,1.10
2022-09-03T04:03:36.069Z,0.90
2022-09-03T04:06:05.126Z,1.50
2022-09-03T04:08:37.898Z,1.23
2022-09-03T04:11:07.808Z,0.90
2022-09-03T04:13:38.004Z,1.03
2022-09-03T04:16:08.108Z,0.80
2022-09-03T04:18:36.683Z,1.20
2022-09-03T04:21:07.064Z,1.43
2022-09-03T04:23:37.791Z,0.80
2022-09-03T04:26:06.682Z,0.87
2022-09-03T04:28:35.343Z,0.90
2022-09-03T04:31:04.220Z,0.80
2022-09-03T04:33:33.722Z,0.77
2022-09-03T04:36:06.478Z,1.20
2022-09-03T04:38:35.166Z,1.50
2022-09-03T04:41:05.138Z,1.00
2022-09-03T04:43:33.579Z,0.73
2022-09-03T04:46:03.127Z,1.07
2022-09-03T04:48:32.466Z,0.83
2022-09-03T04:51:05.955Z,1.27
2022-09-03T04:53:35.691Z,0.93
2022-09-03T04:56:12.930Z,0.87
2022-09-03T04:58:41.341Z,1.53
2022-09-03T05:01:13.321Z,1.33
2022-09-03T05:03:41.304Z,1.47
2022-09-03T05:06:10.115Z,1.03
2022-09-03T05:08:38.030Z,1.00
2022-09-03T05:11:09.031Z,1.10
2022-09-03T05:13:37.903Z,0.87
2022-09-03T05:16:08.037Z,0.90
2022-09-03T05:18:37.028Z,1.03
2022-09-03T05:21:06.904Z,1.10
2022-09-03T05:23:39.057Z,1.00
2022-09-03T05:26:11.142Z,1.40
2022-09-03T05:28:41.671Z,1.13
2022-09-03T05:31:11.150Z,1.33
2022-09-03T05:33:42.545Z,1.77
2022-09-03T05:36:12.894Z,1.60
2022-09-03T05:38:40.885Z,1.63
2022-09-03T05:41:12.760Z,0.87
2022-09-03T05:43:42.063Z,1.53
2022-09-03T05:46:11.772Z,1.93
2022-09-03T05:48:41.343Z,2.40
2022-09-03T05:51:10.989Z,1.37
2022-09-03T05:53:41.441Z,1.40
2022-09-03T05:56:12.274Z,1.60
2022-09-03T05:58:43.548Z,2.73
2022-09-03T06:01:13.107Z,1.23
2022-09-03T06:03:41.280Z,1.77
2022-09-03T06:06:09.925Z,1.33
2022-09-03T06:08:38.831Z,1.50
2022-09-03T06:11:07.639Z,1.50
2022-09-03T06:13:37.432Z,1.03
2022-09-03T06:16:07.737Z,1.63
2022-09-03T06:18:35.942Z,1.33
2022-09-03T06:21:07.201Z,1.27
2022-09-03T06:23:36.303Z,1.50
2022-09-03T06:26:06.295Z,1.13
2022-09-03T06:28:37.910Z,1.60
2022-09-03T06:31:07.938Z,1.70
2022-09-03T06:33:37.489Z,2.00
2022-09-03T06:36:08.956Z,1.83
2022-09-03T06:38:38.401Z,2.07
2022-09-03T06:41:08.240Z,1.80
2022-09-03T06:43:39.609Z,1.20
2022-09-03T06:46:09.771Z,1.40
2022-09-03T06:48:38.827Z,1.20
2022-09-03T06:51:08.531Z,1.40
2022-09-03T06:53:37.854Z,1.43
2022-09-03T06:56:08.038Z,2.10
2022-09-03T06:58:40.534Z,1.87
2022-09-03T07:01:10.959Z,2.20
2022-09-03T07:03:40.413Z,1.40
2022-09-03T07:06:10.588Z,1.50
2022-09-03T07:08:38.964Z,1.10
2022-09-03T07:11:10.297Z,1.17
2022-09-03T07:13:41.711Z,1.50
2022-09-03T07:16:12.060Z,2.20
2022-09-03T07:18:40.769Z,1.47
2022-09-03T07:21:10.338Z,2.13
2022-09-03T07:23:39.466Z,1.50
2022-09-03T07:26:12.655Z,1.63
2022-09-03T07:28:43.769Z,1.60
2022-09-03T07:31:13.283Z,1.30
2022-09-03T07:33:41.281Z,1.70
2022-09-03T07:36:11.161Z,2.20
2022-09-03T07:38:39.383Z,2.53
2022-09-03T07:41:09.970Z,2.20
2022-09-03T07:43:40.459Z,2.13
2022-09-03T07:46:13.085Z,1.30
2022-09-03T07:48:41.858Z,1.83
2022-09-03T07:51:09.963Z,3.67
2022-09-03T07:53:38.009Z,1.80
2022-09-03T07:56:07.901Z,1.90
2022-09-03T07:58:36.878Z,1.90
2022-09-03T08:01:08.869Z,2.10
2022-09-03T08:03:44.068Z,1.87
2022-09-03T08:06:12.994Z,1.20
2022-09-03T08:08:41.461Z,2.27
2022-09-03T08:11:10.998Z,1.83
2022-09-03T08:13:40.822Z,1.80
2022-09-03T08:16:09.480Z,1.90
2022-09-03T08:18:39.111Z,2.83
2022-09-03T08:21:11.826Z,1.80
2022-09-03T08:23:39.963Z,2.17
2022-09-03T08:26:08.539Z,2.00
2022-09-03T08:28:36.779Z,1.33
2022-09-03T08:31:10.099Z,1.53
2022-09-03T08:33:38.610Z,2.00
2022-09-03T08:36:09.563Z,2.33
2022-09-03T08:38:38.205Z,2.13
2022-09-03T08:41:08.526Z,1.90
2022-09-03T08:43:46.418Z,2.50
2022-09-03T08:46:14.560Z,2.53
2022-09-03T08:48:42.518Z,2.30
2022-09-03T08:51:13.300Z,2.20
2022-09-03T08:53:47.247Z,1.80
2022-09-03T08:56:22.548Z,1.60
2022-09-03T08:58:50.501Z,2.30
2022-09-03T09:01:32.209Z,1.93
2022-09-03T09:04:11.691Z,2.10
2022-09-03T09:06:48.009Z,1.83
2022-09-03T09:09:27.794Z,2.20
2022-09-03T09:12:06.364Z,2.23
2022-09-03T09:14:41.618Z,1.67
2022-09-03T09:17:28.010Z,2.27
2022-09-03T09:20:05.762Z,2.07
2022-09-03T09:22:39.411Z,1.93
2022-09-03T09:25:14.286Z,1.27
2022-09-03T09:27:51.755Z,1.50
2022-09-03T09:30:20.665Z,1.33
2022-09-03T09:32:48.693Z,1.27
2022-09-03T09:35:19.785Z,1.50
2022-09-03T09:37:54.245Z,1.87
2022-09-03T09:40:33.814Z,2.23
2022-09-03T09:43:10.972Z,2.33
2022-09-03T09:45:45.088Z,1.20
2022-09-03T09:48:23.505Z,1.93
2022-09-03T09:50:51.500Z,1.80
2022-09-03T09:53:21.851Z,1.97
2022-09-03T09:55:51.619Z,1.63
2022-09-03T09:58:22.238Z,2.10
2022-09-03T10:01:00.201Z,1.77
2022-09-03T10:03:29.965Z,1.63
2022-09-03T10:06:25.663Z,1.50
2022-09-03T10:09:07.067Z,1.60
2022-09-03T10:11:37.025Z,1.47
2022-09-03T10:14:10.018Z,2.00
2022-09-03T10:16:48.361Z,1.47
2022-09-03T10:19:19.558Z,1.70
2022-09-03T10:21:56.621Z,1.43
2022-09-03T10:24:39.679Z,1.50
2022-09-03T10:27:13.899Z,1.47
2022-09-03T10:29:42.327Z,1.47
2022-09-03T10:32:38.891Z,1.90
2022-09-03T10:35:20.852Z,1.37
2022-09-03T10:37:56.350Z,1.20
2022-09-03T10:40:36.247Z,1.70
2022-09-03T10:43:24.485Z,1.90
2022-09-03T10:46:01.485Z,1.83
2022-09-03T10:48:48.991Z,1.73
2022-09-03T10:51:21.467Z,1.00
2022-09-03T10:54:05.904Z,1.73
2022-09-03T10:56:47.275Z,0.80
2022-09-03T10:59:30.271Z,1.30
2022-09-03T11:02:16.912Z,1.80
2022-09-03T11:04:53.443Z,1.43
2022-09-03T11:07:25.182Z,1.30
2022-09-03T11:09:59.188Z,0.93
2022-09-03T11:12:32.349Z,1.30
2022-09-03T11:15:05.917Z,1.30
2022-09-03T11:17:39.186Z,1.00
2022-09-03T11:20:15.965Z,1.10
2022-09-03T11:22:46.250Z,0.90
2022-09-03T11:25:16.369Z,0.90
2022-09-03T11:28:02.039Z,1.20
2022-09-03T11:30:38.169Z,1.40
2022-09-03T11:33:10.653Z,1.40
2022-09-03T11:35:42.873Z,0.80
2022-09-03T11:38:27.420Z,1.00
2022-09-03T11:41:01.971Z,0.97
2022-09-03T11:43:32.895Z,1.00
2022-09-03T11:46:12.838Z,1.97
2022-09-03T11:48:44.551Z,0.90
2022-09-03T11:51:21.330Z,0.70
2022-09-03T11:53:56.867Z,0.70
2022-09-03T11:56:25.612Z,0.90
2022-09-03T11:59:17.727Z,0.90
2022-09-03T12:01:53.097Z,0.90
2022-09-03T12:04:25.565Z,1.00
2022-09-03T12:07:20.178Z,1.17
2022-09-03T12:10:03.053Z,1.10
2022-09-03T12:13:02.157Z,0.87
2022-09-03T12:15:51.129Z,1.33
2022-09-03T12:18:23.638Z,1.30
2022-09-03T12:21:03.342Z,1.00
2022-09-03T12:23:33.369Z,0.90
2022-09-03T12:26:05.744Z,0.93
2022-09-03T12:28:37.656Z,1.17
2022-09-03T12:31:21.081Z,0.90
2022-09-03T12:33:51.393Z,0.87
2022-09-03T12:36:19.555Z,0.90
2022-09-03T12:39:10.478Z,1.03
2022-09-03T12:41:37.749Z,1.10
2022-09-03T12:44:06.398Z,1.23
2022-09-03T12:46:35.782Z,0.63
2022-09-03T12:52:05.861Z,1.93
2022-09-03T12:54:35.767Z,0.80
2022-09-03T12:57:04.399Z,0.80
2022-09-03T12:59:35.390Z,0.73
2022-09-03T13:02:11.797Z,0.93
2022-09-03T13:04:42.497Z,1.00
2022-09-03T13:07:16.061Z,1.00
2022-09-03T13:09:44.220Z,1.03
2022-09-03T13:12:24.776Z,0.90
2022-09-03T13:14:54.143Z,1.20
2022-09-03T13:17:47.577Z,1.10
2022-09-03T13:20:34.036Z,1.00
2022-09-03T13:23:33.362Z,0.70
2022-09-03T13:26:10.677Z,0.70
2022-09-03T13:28:49.353Z,0.70
2022-09-03T13:31:28.825Z,0.80
2022-09-03T13:34:04.088Z,0.70
2022-09-03T13:36:38.234Z,0.80
2022-09-03T13:39:12.878Z,0.70
2022-09-03T13:41:46.249Z,0.73
2022-09-03T13:44:22.158Z,0.70
2022-09-03T13:46:55.707Z,0.60
2022-09-03T13:50:06.266Z,1.00
2022-09-03T13:52:42.959Z,0.70
2022-09-03T13:55:16.706Z,0.80
2022-09-03T13:57:51.925Z,0.80
2022-09-03T14:00:31.221Z,0.87
2022-09-03T14:03:09.032Z,0.60
2022-09-03T14:05:51.776Z,0.70
2022-09-03T14:08:28.161Z,0.80
2022-09-03T14:11:01.882Z,0.80
2022-09-03T14:13:41.458Z,0.70
2022-09-03T14:16:15.273Z,0.80
2022-09-03T14:18:52.738Z,0.70
2022-09-03T14:21:26.468Z,1.00
2022-09-03T14:24:05.402Z,0.70
2022-09-03T14:26:39.979Z,0.80
2022-09-03T14:29:17.141Z,1.23
2022-09-03T14:32:23.034Z,1.57
2022-09-03T14:35:19.967Z,0.60
2022-09-03T14:38:06.411Z,0.73
2022-09-03T14:40:43.211Z,1.00
2022-09-03T14:43:22.791Z,1.20
2022-09-03T14:46:05.929Z,1.07
2022-09-03T14:48:52.535Z,1.00
2022-09-03T14:51:34.429Z,1.00
2022-09-03T14:54:16.387Z,0.80
2022-09-03T14:56:51.385Z,0.80
2022-09-03T14:59:35.818Z,1.57
2022-09-03T15:02:30.056Z,0.83
2022-09-03T15:05:12.160Z,0.87
2022-09-03T15:07:46.914Z,0.93
2022-09-03T15:10:25.487Z,1.17
2022-09-03T15:12:56.145Z,0.93
2022-09-03T15:15:29.805Z,1.07
2022-09-03T15:18:10.960Z,1.20
2022-09-03T15:20:50.734Z,0.90
2022-09-03T15:23:42.742Z,0.80
2022-09-03T15:26:36.843Z,1.00
2022-09-03T15:29:34.236Z,0.97
2022-09-03T15:32:13.908Z,1.27
2022-09-03T15:35:02.757Z,1.00
2022-09-03T15:37:35.792Z,1.40
2022-09-03T15:40:08.193Z,0.90
2022-09-03T15:42:38.588Z,0.77
2022-09-03T15:45:15.863Z,0.90
2022-09-03T15:47:55.179Z,0.80
2022-09-03T15:50:33.981Z,0.90
2022-09-03T15:53:06.425Z,1.00
2022-09-03T15:55:38.457Z,0.83
2022-09-03T15:58:18.791Z,0.93
2022-09-03T16:01:00.020Z,1.73
2022-09-03T16:03:44.279Z,1.03
2022-09-03T16:06:23.604Z,1.00
2022-09-03T16:08:56.444Z,0.93
2022-09-03T16:11:38.589Z,1.00
2022-09-03T16:14:16.607Z,0.80
2022-09-03T16:16:58.806Z,0.77
2022-09-03T16:19:31.399Z,1.00
2022-09-03T16:22:01.675Z,0.90
2022-09-03T16:24:38.429Z,0.90
2022-09-03T16:27:11.144Z,0.70
2022-09-03T16:29:40.611Z,1.10
2022-09-03T16:32:22.173Z,0.63
2022-09-03T16:35:04.752Z,1.00
2022-09-03T16:37:40.187Z,1.00
2022-09-03T16:40:15.955Z,1.20
2022-09-03T16:42:52.847Z,0.90
2022-09-03T16:45:34.175Z,0.90
2022-09-03T16:48:17.402Z,1.20
2022-09-03T16:51:08.233Z,1.20
2022-09-03T16:53:50.095Z,1.03
2022-09-03T16:56:36.388Z,0.80
2022-09-03T16:59:18.810Z,1.00
2022-09-03T17:02:00.453Z,0.80
2022-09-03T17:04:59.434Z,0.90
2022-09-03T17:07:46.934Z,0.67
2022-09-03T17:10:24.558Z,1.20
2022-09-03T17:13:07.724Z,0.90
2022-09-03T17:15:48.253Z,0.80
2022-09-03T17:18:33.398Z,1.00
2022-09-03T17:21:17.343Z,0.90
2022-09-03T17:24:24.398Z,0.73
2022-09-03T17:27:04.236Z,1.27
2022-09-03T17:29:59.421Z,0.73
2022-09-03T17:32:57.351Z,0.80
2022-09-03T17:35:38.394Z,0.80
2022-09-03T17:38:21.094Z,0.93
2022-09-03T17:41:01.861Z,0.90
2022-09-03T17:43:42.222Z,0.80
2022-09-03T17:46:22.425Z,0.87
2022-09-03T17:48:54.956Z,0.80
2022-09-03T17:51:35.131Z,0.80
2022-09-03T17:54:11.417Z,0.80
2022-09-03T17:56:49.031Z,0.80
2022-09-03T17:59:35.427Z,0.80
2022-09-03T18:02:07.417Z,0.80
2022-09-03T18:04:46.358Z,1.20
2022-09-03T18:07:24.069Z,0.93
2022-09-03T18:10:03.347Z,0.63
2022-09-03T18:12:41.967Z,0.77
2022-09-03T18:15:19.765Z,0.80
2022-09-03T18:17:54.165Z,0.97
2022-09-03T18:20:41.123Z,0.80
2022-09-03T18:23:35.779Z,0.70
2022-09-03T18:26:26.879Z,0.97
2022-09-03T18:29:19.481Z,0.63
2022-09-03T18:32:04.980Z,0.90
2022-09-03T18:34:52.147Z,0.80
2022-09-03T18:37:41.210Z,0.70
2022-09-03T18:40:32.627Z,0.80
2022-09-03T18:43:29.237Z,0.83
2022-09-03T18:47:16.509Z,0.80
2022-09-03T18:49:36.522Z,1.00
2022-09-03T18:52:30.043Z,0.70
2022-09-03T18:55:26.719Z,0.80
2022-09-03T18:58:26.031Z,0.83
2022-09-03T19:01:22.313Z,0.70
2022-09-03T19:04:18.496Z,0.93
2022-09-03T19:07:09.375Z,1.00
2022-09-03T19:10:06.889Z,0.90
2022-09-03T19:13:08.607Z,1.53
2022-09-03T19:16:04.685Z,0.87
2022-09-03T19:19:14.016Z,0.97
2022-09-03T19:22:04.414Z,0.80
2022-09-03T19:24:50.330Z,1.00
2022-09-03T19:27:57.280Z,0.80
2022-09-03T19:30:50.767Z,1.10
2022-09-03T19:33:45.060Z,0.60
2022-09-03T19:36:37.548Z,1.60
2022-09-03T19:39:40.235Z,1.00
2022-09-03T19:42:35.166Z,1.03
2022-09-03T19:45:31.661Z,1.10
2022-09-03T19:48:29.825Z,1.37
2022-09-03T19:51:26.971Z,0.77
2022-09-03T19:54:14.377Z,0.87
2022-09-03T19:57:00.739Z,1.10
2022-09-03T19:59:52.180Z,0.90
2022-09-03T20:02:37.629Z,0.70
2022-09-03T20:05:28.789Z,1.30
2022-09-03T20:08:18.575Z,0.90
2022-09-03T20:10:50.364Z,0.90
2022-09-03T20:13:20.609Z,0.90
2022-09-03T20:15:56.501Z,1.33
2022-09-03T20:18:38.176Z,0.70
2022-09-03T20:21:13.978Z,0.83
2022-09-03T20:23:52.211Z,0.73
2022-09-03T20:26:41.370Z,0.83
2022-09-03T20:29:42.806Z,0.70
2022-09-03T20:32:17.320Z,0.83
2022-09-03T20:34:53.432Z,0.83
2022-09-03T20:37:29.276Z,0.87
2022-09-03T20:40:16.875Z,0.60
2022-09-03T20:43:07.115Z,0.90
2022-09-03T20:45:44.533Z,0.77
2022-09-03T20:48:23.499Z,0.90
2022-09-03T20:50:59.272Z,0.90
2022-09-03T20:53:49.775Z,0.70
2022-09-03T20:56:27.692Z,0.90
2022-09-03T20:59:03.962Z,0.70
2022-09-03T21:01:39.003Z,0.70
2022-09-03T21:04:20.582Z,0.70
2022-09-03T21:06:57.121Z,0.90
2022-09-03T21:09:37.005Z,1.00
2022-09-03T21:12:14.459Z,1.30
2022-09-03T21:14:47.597Z,0.73
2022-09-03T21:17:37.363Z,0.70
2022-09-03T21:20:16.786Z,1.00
2022-09-03T21:22:54.971Z,0.60
2022-09-03T21:25:27.358Z,0.83
2022-09-03T21:28:02.401Z,0.90
2022-09-03T21:30:32.201Z,0.90
2022-09-03T21:33:07.724Z,0.77
2022-09-03T21:35:39.064Z,0.83
2022-09-03T21:38:09.971Z,0.80
2022-09-03T21:40:48.471Z,0.80
2022-09-03T21:43:23.259Z,0.90
2022-09-03T21:45:55.660Z,0.60
2022-09-03T21:48:28.860Z,0.90
2022-09-03T21:51:01.189Z,0.80
2022-09-03T21:53:36.830Z,0.60
2022-09-03T21:56:21.670Z,0.90
2022-09-03T21:59:08.718Z,0.93
2022-09-03T22:01:48.382Z,0.60
2022-09-03T22:04:16.396Z,1.00
2022-09-03T22:06:51.999Z,0.60
2022-09-03T22:09:26.534Z,0.70
2022-09-03T22:12:03.911Z,0.73
2022-09-03T22:14:41.516Z,0.80
2022-09-03T22:17:16.801Z,1.00
2022-09-03T22:19:45.632Z,0.70
2022-09-03T22:22:20.550Z,1.33
2022-09-03T22:24:51.613Z,0.83
2022-09-03T22:27:27.274Z,0.90
2022-09-03T22:30:06.255Z,0.87
2022-09-03T22:32:49.014Z,0.70
2022-09-03T22:35:37.329Z,0.93
2022-09-03T22:38:23.317Z,1.70
2022-09-03T22:40:56.025Z,1.00
2022-09-03T22:43:36.157Z,1.00
2022-09-03T22:46:10.870Z,0.70
2022-09-03T22:49:10.801Z,0.60
2022-09-03T22:51:51.938Z,0.70
2022-09-03T22:54:34.890Z,0.80
2022-09-03T22:57:04.073Z,0.97
2022-09-03T22:59:37.923Z,0.70
2022-09-03T23:02:12.418Z,0.70
2022-09-03T23:04:47.723Z,0.63
2022-09-03T23:07:23.401Z,1.10
2022-09-03T23:09:57.537Z,0.70
2022-09-03T23:12:34.091Z,0.67
2022-09-03T23:15:06.755Z,0.67
2022-09-03T23:17:41.839Z,0.80
2022-09-03T23:20:15.269Z,0.60
2022-09-03T23:22:54.442Z,0.77
2022-09-03T23:25:24.551Z,0.80
2022-09-03T23:27:58.523Z,1.00
2022-09-03T23:30:26.564Z,0.77
2022-09-03T23:32:58.913Z,0.90
2022-09-03T23:35:30.437Z,0.83
2022-09-03T23:38:11.424Z,0.80
2022-09-03T23:40:48.307Z,0.87
2022-09-03T23:43:51.847Z,1.00
2022-09-03T23:46:25.954Z,0.60
2022-09-03T23:49:11.660Z,0.70
2022-09-03T23:51:51.655Z,0.73
2022-09-03T23:54:26.567Z,0.70
2022-09-03T23:57:06.150Z,0.70
2022-09-03T23:59:46.569Z,0.83
